Главная страница
METAR-TAF:

METAR-TAF

Аэропорты :

Уппсала, Швеция

широта: 59-53N, долгота: 017-36E, высота над уровнем моря: 21 м

Текущие метеонаблюдения

Эта сводка был подготовлена 33 минут назад, в 14:20 UTC
Ветер 8 Узел от юго-восточный, изменяющийся между восточный и южный
Температура 21°C
Влажность 43%
Давление 1010 hPa
Видимость 10 км и более

METAR: ESCM 221420Z AUTO 14008KT 100V180 9999 NCD 21/08 Q1010

Время: 16:53 (14:53 UTC)


TAF: отсутствует

Метеонаблюдения и прогнозы для более 4000 аэропортов (сводки METAR и TAF).

Имеющиеся станции представлены на карте желтыми и красными точками.

Чтобы увидеть название станции, наведите на нее мышь.

Затем щелкните, чтобы увидеть метеонаблюдения и метеопрогнозы.

Управление картой: чтобы увеличить масштаб, щелкните зеленые кнопки с черным крестиком; чтобы уменьшить масштаб, щелкните зеленую кнопку с тире; для просмотра соседних карт щелкайте зеленые стрелки.


METAR-TAF: